Time;durP1;ratioP1;P1;durP2;ratioP2;P2;SDS_P1;SDS_P2;PMS_P1;PMS_P2;Temp;Humidity;BMP_temperature;BMP_pressure;BME280_temperature;BME280_humidity;BME280_pressure;Samples;Min_cycle;Max_cycle;Signal;HPM_P1;HPM_P2
2021/04/09 00:01:54;;;;;;;22.25;12.60;;;;;;;-0.15;84.02;101266.69;5103073;28;20032;-74
2021/04/09 00:04:20;;;;;;;19.92;10.75;;;;;;;0.28;84.41;101334.84;5110685;28;20033;-76
2021/04/09 00:06:46;;;;;;;21.05;11.13;;;;;;;0.31;84.54;101345.38;5112841;28;20028;-75
2021/04/09 00:09:12;;;;;;;20.58;11.18;;;;;;;0.24;84.58;101346.22;5115081;28;20043;-76
2021/04/09 00:11:39;;;;;;;21.23;11.60;;;;;;;0.10;84.33;101321.75;5115276;28;20036;-76
2021/04/09 00:14:06;;;;;;;22.52;11.25;;;;;;;0.07;84.31;101314.75;5115322;28;20036;-77
2021/04/09 00:16:31;;;;;;;25.77;11.88;;;;;;;0.23;84.48;101344.50;5111786;28;20063;-77
2021/04/09 00:18:57;;;;;;;22.23;11.63;;;;;;;0.08;84.26;101334.84;5104807;28;20055;-77
2021/04/09 00:21:23;;;;;;;19.48;11.95;;;;;;;0.17;84.08;101357.59;5104597;28;20039;-77
2021/04/09 00:23:48;;;;;;;23.75;11.63;;;;;;;-0.24;84.88;101287.66;5101608;28;20391;-74
2021/04/09 00:26:14;;;;;;;22.17;11.52;;;;;;;0.03;84.67;101347.13;5098117;28;20036;-75
2021/04/09 00:28:39;;;;;;;21.60;11.88;;;;;;;0.03;84.83;101341.00;5095170;28;20038;-76
2021/04/09 00:31:06;;;;;;;21.20;11.52;;;;;;;-0.01;85.04;101343.59;5094296;28;20089;-74
2021/04/09 00:33:31;;;;;;;23.75;11.90;;;;;;;-0.04;85.17;101351.47;5094255;28;20036;-75
2021/04/09 00:35:57;;;;;;;24.88;12.20;;;;;;;-0.45;84.85;101277.16;5093933;28;20553;-74
2021/04/09 00:38:22;;;;;;;19.95;11.65;;;;;;;0.02;85.52;101357.63;5094174;28;20089;-76
2021/04/09 00:40:48;;;;;;;22.40;11.85;;;;;;;-0.04;85.38;101351.47;5094218;28;20059;-74
2021/04/09 00:43:13;;;;;;;21.33;12.32;;;;;;;-0.46;85.21;101278.91;5075397;28;20040;-74
2021/04/09 00:45:39;;;;;;;23.02;11.77;;;;;;;-0.17;85.54;101336.63;5093677;28;20024;-75
2021/04/09 00:48:05;;;;;;;19.90;11.93;;;;;;;-0.13;84.83;101348.84;5093375;28;20081;-76
2021/04/09 00:50:32;;;;;;;19.92;11.50;;;;;;;-0.12;84.74;101352.34;5075542;28;20035;-75
2021/04/09 00:53:01;;;;;;;19.95;11.20;;;;;;;-0.20;85.04;101348.81;5093592;28;20036;-74
2021/04/09 00:55:27;;;;;;;22.15;11.55;;;;;;;0.09;85.19;101354.09;5093574;28;20395;-70
2021/04/09 00:57:55;;;;;;;20.45;11.63;;;;;;;0.20;84.76;101339.25;5093457;28;20039;-75
2021/04/09 01:00:21;;;;;;;21.88;11.52;;;;;;;0.04;84.35;101329.63;5093444;28;20486;-70
2021/04/09 01:02:47;;;;;;;19.15;11.15;;;;;;;0.11;84.53;101349.75;5093687;28;20024;-70
2021/04/09 01:05:15;;;;;;;20.85;11.90;;;;;;;0.01;84.36;101356.75;5093215;28;20387;-73
2021/04/09 01:07:42;;;;;;;20.50;11.07;;;;;;;-0.11;84.76;101356.72;5093659;28;20024;-73
2021/04/09 01:10:10;;;;;;;22.90;12.65;;;;;;;-0.19;85.40;101354.09;5091917;28;20035;-73
2021/04/09 01:12:35;;;;;;;20.17;11.73;;;;;;;-0.17;85.65;101352.34;5093738;28;20477;-73
2021/04/09 01:15:02;;;;;;;22.75;11.73;;;;;;;-0.29;85.88;101341.81;5091837;28;20036;-75
2021/04/09 01:17:56;;;;;;;20.70;11.98;;;;;;;-0.05;85.10;101340.97;5092319;28;20039;-74
2021/04/09 01:20:29;;;;;;;19.42;11.30;;;;;;;0.19;83.54;101341.00;5109302;28;20043;-74
2021/04/09 01:23:25;;;;;;;21.48;10.93;;;;;;;0.17;82.92;101341.84;5113878;28;20037;-74
2021/04/09 01:26:12;;;;;;;20.27;11.23;;;;;;;-0.08;83.23;101357.59;5113876;28;20035;-73
2021/04/09 01:29:19;;;;;;;23.83;12.35;;;;;;;-0.28;84.32;101353.22;5113597;28;20374;-74
2021/04/09 01:32:06;;;;;;;23.42;12.07;;;;;;;-0.56;84.67;101331.31;5098861;28;20093;-74
2021/04/09 01:34:37;;;;;;;21.90;12.90;;;;;;;-0.42;85.04;101347.91;5113453;28;20028;-74
2021/04/09 01:37:23;;;;;;;25.05;13.77;;;;;;;-0.26;84.55;101349.72;5113281;28;20065;-75
2021/04/09 01:40:06;;;;;;;27.77;13.77;;;;;;;0.03;83.71;101352.34;5096138;28;20042;-74
2021/04/09 01:42:35;;;;;;;25.02;13.38;;;;;;;-0.05;83.20;101343.59;5095328;28;20031;-73
2021/04/09 01:45:02;;;;;;;24.60;12.98;;;;;;;-0.23;83.61;101347.09;5113018;28;20055;-73
2021/04/09 01:47:28;;;;;;;23.58;13.40;;;;;;;-0.58;84.33;101318.16;5095433;28;20057;-73
2021/04/09 01:49:57;;;;;;;25.80;13.20;;;;;;;-0.67;84.36;101324.28;5113421;28;20032;-73
2021/04/09 01:52:25;;;;;;;25.80;13.55;;;;;;;-0.55;84.77;101354.88;5113393;28;20032;-75
2021/04/09 01:54:53;;;;;;;25.73;14.57;;;;;;;-0.66;84.60;101328.66;5078816;28;20032;-75
2021/04/09 01:57:20;;;;;;;25.70;14.57;;;;;;;-0.60;84.96;101340.88;5112793;28;20023;-76
2021/04/09 01:59:48;;;;;;;26.40;14.07;;;;;;;-0.76;85.25;101319.03;5095019;28;20031;-74
2021/04/09 02:02:16;;;;;;;24.45;14.25;;;;;;;-0.71;84.63;101316.41;5113025;28;20386;-74
2021/04/09 02:04:43;;;;;;;27.30;13.73;;;;;;;-0.72;84.66;101339.09;5095124;28;20421;-74
2021/04/09 02:07:09;;;;;;;27.90;13.90;;;;;;;-0.96;84.92;101278.81;5094669;28;20039;-75
2021/04/09 02:09:36;;;;;;;25.65;13.77;;;;;;;-0.53;83.97;101332.19;5113326;28;20110;-76
2021/04/09 02:12:02;;;;;;;23.63;13.20;;;;;;;-0.61;84.49;101339.13;5112628;28;20107;-74
2021/04/09 02:14:30;;;;;;;26.60;13.98;;;;;;;-0.83;84.92;101312.00;5094948;28;20458;-74
2021/04/09 02:16:57;;;;;;;27.17;14.60;;;;;;;-0.50;84.07;101349.66;5113732;28;20031;-74
2021/04/09 02:19:25;;;;;;;28.70;14.93;;;;;;;-0.53;83.88;101336.53;5116692;28;20055;-74
2021/04/09 02:21:51;;;;;;;32.22;15.18;;;;;;;-0.43;83.48;101339.19;5117070;28;20032;-74
2021/04/09 02:24:18;;;;;;;28.50;14.70;;;;;;;-0.58;82.88;101312.94;5098774;28;20043;-74
2021/04/09 02:26:43;;;;;;;25.48;14.68;;;;;;;-0.35;82.44;101350.56;5098557;28;20040;-74
2021/04/09 02:29:09;;;;;;;29.98;14.75;;;;;;;-0.53;82.31;101347.91;5098435;28;20438;-74
2021/04/09 02:31:35;;;;;;;28.50;15.38;;;;;;;-0.59;82.64;101343.50;5116823;28;20028;-73
2021/04/09 02:34:01;;;;;;;28.63;15.32;;;;;;;-0.85;82.84;101332.09;5116668;28;20047;-74
2021/04/09 02:36:29;;;;;;;28.42;15.05;;;;;;;-0.94;83.67;101326.81;5116604;28;20516;-73
2021/04/09 02:39:15;;;;;;;34.60;16.88;;;;;;;-0.79;84.38;101363.53;5098921;28;20074;-73
2021/04/09 02:41:44;;;;;;;33.80;16.70;;;;;;;-0.78;84.28;101349.56;5116877;28;20114;-74
2021/04/09 02:44:11;;;;;;;29.85;14.82;;;;;;;-0.67;83.71;101360.97;5115928;28;20023;-75
2021/04/09 02:46:50;;;;;;;27.38;15.15;;;;;;;-0.82;83.79;101329.47;5116741;28;20435;-75
2021/04/09 02:49:33;;;;;;;28.40;15.85;;;;;;;-0.53;83.18;101360.13;5116209;28;20031;-75
2021/04/09 02:52:00;;;;;;;28.13;15.02;;;;;;;-0.75;83.50;101357.44;5116508;28;20055;-74
2021/04/09 02:54:29;;;;;;;25.27;15.02;;;;;;;-0.79;83.62;101370.50;5116198;28;20094;-74
2021/04/09 02:56:56;;;;;;;26.67;15.35;;;;;;;-0.91;84.79;101350.41;5116528;28;20113;-73
2021/04/09 02:59:23;;;;;;;29.08;15.23;;;;;;;-0.76;84.44;101350.47;5097773;28;20110;-74
2021/04/09 03:01:48;;;;;;;31.50;15.88;;;;;;;-0.85;83.66;101305.91;5116363;28;20037;-75
2021/04/09 03:04:16;;;;;;;30.25;16.55;;;;;;;-0.52;83.44;101343.53;5097983;28;20028;-70
2021/04/09 03:06:44;;;;;;;32.50;15.65;;;;;;;-0.76;83.62;101353.09;5081436;28;20024;-71
2021/04/09 03:09:10;;;;;;;33.55;16.08;;;;;;;-1.10;84.30;101327.59;5115881;28;20084;-72
2021/04/09 03:11:37;;;;;;;29.17;16.02;;;;;;;-1.03;84.91;101355.59;5115870;28;20416;-72
2021/04/09 03:14:03;;;;;;;28.98;15.02;;;;;;;-1.02;84.84;101362.56;5116078;28;20050;-76
2021/04/09 03:16:36;;;;;;;31.98;15.63;;;;;;;-1.31;85.12;101321.41;5116240;28;20032;-75
2021/04/09 03:19:02;;;;;;;28.60;15.13;;;;;;;-1.18;85.33;101357.25;5115987;28;20046;-75
2021/04/09 03:21:28;;;;;;;26.75;16.65;;;;;;;-1.01;85.00;101359.06;5115783;28;20458;-75
2021/04/09 03:23:53;;;;;;;26.30;15.60;;;;;;;-1.19;84.48;101342.41;5116204;28;20054;-76
2021/04/09 03:26:18;;;;;;;32.05;16.50;;;;;;;-1.22;84.98;101344.16;5080432;28;20031;-75
2021/04/09 03:28:44;;;;;;;29.52;16.88;;;;;;;-1.16;84.52;101371.25;5114523;28;20032;-73
2021/04/09 03:31:09;;;;;;;28.75;16.20;;;;;;;-1.36;84.81;101341.44;5115233;28;20186;-75
2021/04/09 03:33:35;;;;;;;31.60;16.25;;;;;;;-1.17;84.55;101374.69;5097534;28;20035;-73
2021/04/09 03:36:00;;;;;;;31.77;16.95;;;;;;;-1.14;84.11;101379.09;5097317;28;20035;-75
2021/04/09 03:38:26;;;;;;;34.13;16.25;;;;;;;-1.06;83.92;101361.69;5096897;28;20091;-73
2021/04/09 03:40:51;;;;;;;34.17;17.60;;;;;;;-1.02;83.31;101373.03;5097301;28;20041;-75
2021/04/09 03:43:17;;;;;;;33.00;17.38;;;;;;;-1.09;83.27;101372.13;5115000;28;20080;-74
2021/04/09 03:45:42;;;;;;;37.33;17.88;;;;;;;-1.16;82.86;101350.28;5080545;28;20035;-73
2021/04/09 03:48:09;;;;;;;32.42;16.90;;;;;;;-1.13;83.32;101382.59;5115121;28;20024;-73
2021/04/09 03:50:34;;;;;;;32.83;18.25;;;;;;;-1.43;84.11;101350.13;5097141;28;20428;-74
2021/04/09 03:53:00;;;;;;;38.17;18.63;;;;;;;-1.78;84.68;101300.19;5115403;28;20062;-75
2021/04/09 03:55:25;;;;;;;36.85;17.27;;;;;;;-1.34;85.15;101386.84;5096704;28;20845;-74
2021/04/09 03:57:51;;;;;;;32.72;17.08;;;;;;;-1.33;85.69;101388.59;5097187;28;20091;-73
2021/04/09 04:00:17;;;;;;;31.33;16.65;;;;;;;-1.11;85.03;101389.56;5114815;28;20122;-74
2021/04/09 04:02:43;;;;;;;33.55;16.52;;;;;;;-1.41;84.65;101326.59;5096878;28;20501;-74
2021/04/09 04:05:09;;;;;;;29.38;14.90;;;;;;;-1.13;85.02;101387.81;5096249;28;20052;-74
2021/04/09 04:07:35;;;;;;;29.45;15.55;;;;;;;-1.22;85.35;101379.06;5115050;28;20054;-74
2021/04/09 04:10:03;;;;;;;30.38;15.90;;;;;;;-1.26;85.80;101392.09;5096663;28;20050;-75
2021/04/09 04:12:29;;;;;;;32.78;17.50;;;;;;;-1.40;86.32;101355.38;5114549;28;20023;-76
2021/04/09 04:14:55;;;;;;;33.33;16.17;;;;;;;-0.91;84.93;101385.31;5096683;28;20032;-75
2021/04/09 04:17:20;;;;;;;30.23;15.50;;;;;;;-0.96;83.58;101355.63;5114336;28;20038;-74
2021/04/09 04:19:46;;;;;;;34.75;16.92;;;;;;;-0.72;82.50;101388.03;5114678;28;20046;-72
2021/04/09 04:22:11;;;;;;;34.47;17.10;;;;;;;-0.81;81.93;101388.84;5096189;28;20378;-72
2021/04/09 04:24:37;;;;;;;35.85;17.88;;;;;;;-1.06;81.97;101363.41;5115011;28;20386;-72
2021/04/09 04:27:02;;;;;;;32.45;16.38;;;;;;;-0.73;81.56;101399.38;5096726;28;20081;-71
2021/04/09 04:29:28;;;;;;;36.63;17.25;;;;;;;-0.87;81.84;101399.28;5114323;28;20031;-72
2021/04/09 04:31:53;;;;;;;34.38;17.45;;;;;;;-1.36;82.01;101325.72;5114933;28;20045;-74
2021/04/09 04:34:19;;;;;;;29.58;16.40;;;;;;;-0.90;82.23;101405.41;5095764;28;20039;-73
2021/04/09 04:36:45;;;;;;;36.55;17.52;;;;;;;-1.05;82.57;101371.28;5079539;28;20027;-73
2021/04/09 04:39:10;;;;;;;35.15;17.30;;;;;;;-0.71;81.63;101401.13;5114150;28;20130;-73
2021/04/09 04:41:36;;;;;;;32.67;17.80;;;;;;;-0.60;81.30;101401.16;5079225;28;20375;-73
2021/04/09 04:44:02;;;;;;;31.83;17.10;;;;;;;-0.73;81.53;101367.94;5078870;28;20514;-73
2021/04/09 04:46:27;;;;;;;32.13;18.15;;;;;;;-0.76;81.46;101370.56;5113750;28;20024;-74
2021/04/09 04:48:53;;;;;;;33.58;17.02;;;;;;;-0.47;81.55;101408.22;5095828;28;20065;-74
2021/04/09 04:51:19;;;;;;;34.95;17.27;;;;;;;-0.43;80.99;101409.09;5095581;28;20475;-75
2021/04/09 04:53:44;;;;;;;33.90;17.13;;;;;;;-0.28;80.88;101401.28;5096166;28;20482;-75
2021/04/09 04:56:10;;;;;;;34.15;17.17;;;;;;;-0.22;80.79;101400.41;5096280;28;20024;-75
2021/04/09 04:58:35;;;;;;;32.20;16.60;;;;;;;-0.31;81.01;101406.50;5095721;28;20432;-74
2021/04/09 05:01:00;;;;;;;40.47;18.27;;;;;;;-0.30;81.10;101403.00;5114781;28;20027;-74
2021/04/09 05:03:26;;;;;;;33.00;16.65;;;;;;;-0.42;80.67;101332.19;5113993;28;20044;-74
2021/04/09 05:05:51;;;;;;;31.65;16.67;;;;;;;0.00;79.53;101381.22;5095988;28;20050;-77
2021/04/09 05:08:17;;;;;;;26.85;16.23;;;;;;;0.54;77.91;101416.22;5095464;28;20092;-74
2021/04/09 05:10:43;;;;;;;29.85;16.20;;;;;;;0.72;76.06;101404.81;5095694;28;20036;-75
2021/04/09 05:13:08;;;;;;;26.65;16.63;;;;;;;0.72;75.73;101420.56;5095398;28;20035;-75
2021/04/09 05:15:34;;;;;;;29.77;16.33;;;;;;;0.78;75.74;101415.31;5113518;28;20035;-75
2021/04/09 05:17:59;;;;;;;35.97;17.38;;;;;;;0.61;76.08;101385.56;5095306;28;20478;-76
2021/04/09 05:20:24;;;;;;;29.73;17.20;;;;;;;0.80;76.22;101414.44;5078236;28;20110;-76
2021/04/09 05:22:50;;;;;;;29.05;16.00;;;;;;;0.82;75.85;101417.06;5113589;28;20111;-75
2021/04/09 05:25:15;;;;;;;30.60;17.48;;;;;;;0.67;76.64;101419.69;5113313;28;20035;-74
2021/04/09 05:27:41;;;;;;;29.60;17.23;;;;;;;0.68;76.74;101413.59;5113662;28;20023;-75
2021/04/09 05:30:07;;;;;;;40.58;21.20;;;;;;;0.80;76.49;101410.94;5095186;28;20031;-74
2021/04/09 05:32:32;;;;;;;38.30;19.15;;;;;;;0.70;76.99;101422.34;5094931;28;20043;-75
2021/04/09 05:34:58;;;;;;;35.17;19.63;;;;;;;0.93;76.29;101425.78;5113582;28;20036;-75
2021/04/09 05:37:24;;;;;;;36.97;20.92;;;;;;;1.07;76.16;101420.50;5113381;28;20386;-74
2021/04/09 05:39:49;;;;;;;39.60;20.33;;;;;;;1.33;75.13;101409.88;5095534;28;20035;-75
2021/04/09 05:42:15;;;;;;;34.17;20.20;;;;;;;1.37;74.81;101416.91;5091751;28;20043;-76
2021/04/09 05:44:41;;;;;;;42.78;21.20;;;;;;;1.30;74.83;101407.28;5104542;28;20043;-77
2021/04/09 05:47:08;;;;;;;39.72;20.88;;;;;;;1.03;74.67;101359.19;5112598;28;20108;-75
2021/04/09 05:49:34;;;;;;;39.97;20.85;;;;;;;1.24;74.42;101387.13;5112671;28;20381;-76
2021/04/09 05:52:03;;;;;;;40.05;20.92;;;;;;;1.54;74.26;101424.69;5095006;28;20040;-76
2021/04/09 05:54:28;;;;;;;41.88;21.85;;;;;;;1.54;73.62;101401.91;5100813;28;20035;-75
2021/04/09 05:56:54;;;;;;;43.17;20.60;;;;;;;1.65;73.85;101407.13;5074918;28;20039;-82
2021/04/09 05:59:19;;;;;;;40.75;21.23;;;;;;;1.63;74.23;101419.38;5116741;28;20034;-80
2021/04/09 06:01:45;;;;;;;38.63;20.95;;;;;;;1.67;74.87;101423.78;5116373;28;20556;-82
2021/04/09 06:04:10;;;;;;;38.28;19.83;;;;;;;1.76;75.22;101417.59;5116193;28;20074;-76
2021/04/09 06:06:36;;;;;;;35.00;19.52;;;;;;;1.92;74.86;101425.38;5116030;28;20034;-78
2021/04/09 06:09:02;;;;;;;39.05;19.50;;;;;;;1.89;75.22;101422.75;5097707;28;20057;-75
2021/04/09 06:11:30;;;;;;;38.28;19.60;;;;;;;2.04;75.24;101426.19;5098001;28;20043;-75
2021/04/09 06:13:55;;;;;;;34.67;18.90;;;;;;;2.29;74.79;101419.84;5116846;28;20073;-74
2021/04/09 06:16:21;;;;;;;35.85;19.70;;;;;;;2.40;74.00;101431.16;5115999;28;20051;-73
2021/04/09 06:18:46;;;;;;;35.97;20.17;;;;;;;2.43;73.25;101403.97;5097595;28;20039;-74
2021/04/09 06:21:12;;;;;;;39.97;20.33;;;;;;;2.59;72.25;101389.75;5098231;28;20480;-74
2021/04/09 06:23:37;;;;;;;36.15;19.35;;;;;;;3.48;70.40;101436.28;5097963;28;20031;-75
2021/04/09 06:26:03;;;;;;;34.78;19.90;;;;;;;3.78;68.40;101393.66;5115355;28;20038;-70
2021/04/09 06:28:28;;;;;;;30.25;18.90;;;;;;;4.53;66.66;101432.94;5115679;28;20178;-73
2021/04/09 06:30:54;;;;;;;36.88;20.42;;;;;;;5.18;64.35;101422.97;5116243;28;20031;-70
2021/04/09 06:33:19;;;;;;;33.35;19.85;;;;;;;5.16;63.08;101381.59;5097619;28;20440;-69
2021/04/09 06:35:45;;;;;;;35.95;19.95;;;;;;;5.61;62.65;101426.53;5115543;28;20035;-69
2021/04/09 06:38:10;;;;;;;32.13;19.08;;;;;;;5.89;61.74;101416.22;5097761;28;20478;-69
2021/04/09 06:40:36;;;;;;;25.58;16.27;;;;;;;5.30;62.33;101395.41;5115529;28;20036;-67
2021/04/09 06:43:01;;;;;;;29.15;16.40;;;;;;;5.31;62.42;101417.47;5097575;28;20036;-67
2021/04/09 06:45:28;;;;;;;30.52;18.05;;;;;;;5.04;63.71;101409.16;5115357;28;20114;-69
2021/04/09 06:47:54;;;;;;;29.70;16.60;;;;;;;5.17;63.36;101418.59;5097620;28;20122;-68
2021/04/09 06:50:21;;;;;;;31.20;17.45;;;;;;;5.36;62.34;101424.38;5115554;28;20027;-69
2021/04/09 06:52:47;;;;;;;24.60;14.00;;;;;;;5.79;60.23;101414.66;5117657;28;20039;-71
2021/04/09 06:55:17;;;;;;;23.73;13.50;;;;;;;6.21;58.89;101415.50;5097235;28;20027;-68
2021/04/09 06:57:43;;;;;;;25.67;14.23;;;;;;;6.14;58.54;101405.97;5114938;28;20090;-72
2021/04/09 07:00:10;;;;;;;25.52;16.88;;;;;;;5.98;59.71;101408.06;5114687;28;20032;-70
2021/04/09 07:02:36;;;;;;;33.50;17.23;;;;;;;5.63;61.03;101415.00;5095734;28;20054;-72
2021/04/09 07:05:03;;;;;;;23.67;14.68;;;;;;;5.30;60.65;101386.59;5115354;28;20040;-72
2021/04/09 07:07:29;;;;;;;20.95;12.20;;;;;;;5.35;60.17;101382.09;5115301;28;20058;-70
2021/04/09 07:09:54;;;;;;;25.63;13.45;;;;;;;5.36;60.22;101400.56;5096668;28;20027;-71
2021/04/09 07:12:28;;;;;;;19.38;11.60;;;;;;;5.52;59.45;101395.84;5097469;28;20031;-70
2021/04/09 07:15:05;;;;;;;19.15;10.23;;;;;;;5.65;57.86;101391.16;5114944;28;20149;-71
2021/04/09 07:17:33;;;;;;;18.42;9.98;;;;;;;5.89;57.09;101424.19;5115194;28;20027;-70
2021/04/09 07:20:18;;;;;;;15.68;9.73;;;;;;;5.78;56.27;101399.69;5096681;28;20386;-70
2021/04/09 07:22:49;;;;;;;18.80;9.60;;;;;;;5.56;55.70;101371.03;5115566;28;20035;-70
2021/04/09 07:25:20;;;;;;;17.50;9.02;;;;;;;6.12;54.55;101428.97;5115334;28;20058;-70
2021/04/09 07:27:48;;;;;;;17.60;8.88;;;;;;;6.14;54.35;101419.19;5114722;28;20067;-71
2021/04/09 07:30:31;;;;;;;16.45;10.05;;;;;;;6.02;54.18;101428.31;5115293;28;20039;-70
2021/04/09 07:33:05;;;;;;;16.90;9.48;;;;;;;6.02;55.58;101417.72;5096255;28;20077;-70
2021/04/09 07:35:46;;;;;;;16.00;9.80;;;;;;;5.55;54.84;101348.13;5096561;28;20514;-70
2021/04/09 07:38:21;;;;;;;16.60;10.35;;;;;;;5.86;55.48;101411.84;5096738;28;20038;-70
2021/04/09 07:41:04;;;;;;;17.17;10.27;;;;;;;5.80;55.53;101390.81;5114371;28;20078;-70
2021/04/09 07:43:35;;;;;;;17.05;10.43;;;;;;;6.10;55.35;101409.59;5114917;28;20352;-70
2021/04/09 07:46:03;;;;;;;17.13;10.07;;;;;;;6.18;55.31;101423.53;5114821;28;20092;-70
2021/04/09 07:48:31;;;;;;;18.40;10.35;;;;;;;6.16;56.01;101414.72;5114259;28;20098;-70
2021/04/09 07:50:57;;;;;;;16.40;10.73;;;;;;;6.13;55.02;101388.31;5114005;28;20475;-70
2021/04/09 07:53:29;;;;;;;17.98;10.38;;;;;;;6.21;54.80;101410.22;5114717;28;20035;-71
2021/04/09 07:56:05;;;;;;;17.58;11.15;;;;;;;6.01;55.10;101374.47;5114237;28;20039;-70
2021/04/09 07:58:32;;;;;;;19.45;10.95;;;;;;;6.18;54.94;101403.22;5096412;28;20031;-70
2021/04/09 08:01:01;;;;;;;18.13;10.15;;;;;;;6.02;54.32;101359.44;5114219;28;20429;-70
2021/04/09 08:03:36;;;;;;;20.48;10.40;;;;;;;6.30;54.33;101402.03;5114632;28;20146;-70
2021/04/09 08:06:08;;;;;;;18.38;10.68;;;;;;;6.49;53.86;101408.63;5096204;28;20527;-71
2021/04/09 08:08:35;;;;;;;21.67;10.18;;;;;;;6.54;53.28;101397.91;5114177;28;20103;-71
2021/04/09 08:11:28;;;;;;;20.25;9.60;;;;;;;6.23;52.13;101352.75;5113764;28;20027;-71
2021/04/09 08:14:06;;;;;;;17.00;8.98;;;;;;;6.57;52.41;101411.09;5095993;28;20420;-71
2021/04/09 08:16:43;;;;;;;19.92;8.88;;;;;;;6.65;52.40;101402.94;5113247;28;20066;-70
2021/04/09 08:19:13;;;;;;;17.05;9.07;;;;;;;6.70;52.38;101411.66;5114065;28;20059;-71
2021/04/09 08:21:44;;;;;;;14.13;8.63;;;;;;;6.82;51.93;101406.00;5113951;28;20027;-70
2021/04/09 08:24:11;;;;;;;19.00;7.95;;;;;;;6.77;50.53;101398.19;5114106;28;20104;-71
2021/04/09 08:26:37;;;;;;;18.25;8.45;;;;;;;6.94;50.50;101389.75;5112909;28;20063;-71
2021/04/09 08:29:06;;;;;;;16.45;8.00;;;;;;;7.09;49.70;101396.44;5112378;28;20359;-72
2021/04/09 08:31:33;;;;;;;15.52;7.60;;;;;;;7.11;49.50;101386.66;5104977;28;20032;-72
2021/04/09 08:33:59;;;;;;;13.27;7.18;;;;;;;6.84;49.20;101327.28;5113357;28;20470;-75
2021/04/09 08:36:26;;;;;;;13.73;6.47;;;;;;;7.29;49.33;101391.44;5095354;28;20044;-75
2021/04/09 08:38:53;;;;;;;10.68;6.00;;;;;;;7.41;47.68;101392.88;5076246;28;20028;-74
2021/04/09 08:41:18;;;;;;;13.60;6.68;;;;;;;7.40;48.06;101388.50;5091575;28;20448;-71
2021/04/09 08:43:45;;;;;;;14.52;6.97;;;;;;;7.34;48.63;101394.00;5093215;28;20032;-75
2021/04/09 08:46:11;;;;;;;16.95;6.57;;;;;;;7.36;48.46;101386.84;5092078;28;20391;-73
2021/04/09 08:48:38;;;;;;;13.15;6.72;;;;;;;7.26;47.79;101359.69;5074851;28;20032;-73
2021/04/09 08:51:05;;;;;;;13.00;6.32;;;;;;;7.06;47.12;101315.16;5092990;28;20043;-72
2021/04/09 08:53:31;;;;;;;11.15;5.50;;;;;;;7.50;45.90;101371.38;5091802;28;20032;-74
2021/04/09 08:55:57;;;;;;;10.90;5.32;;;;;;;7.56;45.87;101341.13;5111515;28;20138;-74
2021/04/09 08:58:23;;;;;;;10.15;5.07;;;;;;;7.68;44.64;101364.63;5113333;28;20088;-73
2021/04/09 09:00:50;;;;;;;11.10;5.40;;;;;;;7.57;45.28;101374.72;5112516;28;20032;-72
2021/04/09 09:03:27;;;;;;;10.25;5.35;;;;;;;7.58;44.71;101368.50;5094925;28;20112;-74
2021/04/09 09:06:01;;;;;;;11.10;5.18;;;;;;;7.81;43.87;101368.66;5113104;28;20043;-71
2021/04/09 09:08:45;;;;;;;11.00;5.38;;;;;;;7.87;43.64;101365.81;5113045;28;20031;-70
2021/04/09 09:11:12;;;;;;;12.43;4.78;;;;;;;7.61;43.48;101328.56;5094809;28;20023;-72
2021/04/09 09:13:45;;;;;;;9.27;5.20;;;;;;;7.82;44.52;101353.59;5112594;28;20463;-69
2021/04/09 09:16:18;;;;;;;12.05;5.22;;;;;;;8.03;44.25;101347.59;5095270;28;20040;-77
2021/04/09 09:19:03;;;;;;;9.63;5.25;;;;;;;7.96;44.44;101330.97;5112551;28;20067;-75
2021/04/09 09:21:34;;;;;;;10.60;6.10;;;;;;;8.10;44.19;101340.28;5094439;28;20035;-74
2021/04/09 09:24:18;;;;;;;12.85;5.72;;;;;;;8.19;45.21;101354.13;5112639;28;20470;-74
2021/04/09 09:26:46;;;;;;;9.95;6.18;;;;;;;7.93;46.14;101327.56;5093427;28;20032;-68
2021/04/09 09:29:28;;;;;;;14.93;6.90;;;;;;;8.08;46.66;101356.28;5112607;28;20057;-70
2021/04/09 09:32:07;;;;;;;15.45;7.47;;;;;;;8.04;47.57;101322.78;5112611;28;20040;-69
2021/04/09 09:34:40;;;;;;;13.30;6.18;;;;;;;8.10;47.29;101327.88;5112774;28;20039;-72
2021/04/09 09:37:18;;;;;;;12.73;7.20;;;;;;;8.36;47.82;101343.00;5113039;28;20114;-76
2021/04/09 09:39:43;;;;;;;11.38;6.43;;;;;;;8.46;48.10;101352.41;5112301;28;20035;-69
2021/04/09 09:42:28;;;;;;;13.85;6.90;;;;;;;8.44;48.47;101337.41;5094538;28;20023;-69
2021/04/09 09:44:54;;;;;;;11.63;6.05;;;;;;;8.52;48.15;101330.91;5112161;28;20031;-70
2021/04/09 09:47:22;;;;;;;12.90;5.60;;;;;;;8.64;46.25;101326.97;5112249;28;20134;-69
2021/04/09 09:50:11;;;;;;;9.77;5.80;;;;;;;8.77;44.94;101322.06;5097696;28;20467;-72
2021/04/09 09:53:09;;;;;;;9.65;5.10;;;;;;;8.83;44.36;101309.41;5114346;28;20122;-73
2021/04/09 09:55:39;;;;;;;8.52;4.82;;;;;;;8.98;43.74;101302.69;5089939;28;20093;-74
2021/04/09 09:58:26;;;;;;;14.52;5.30;;;;;;;9.01;42.99;101313.22;5094260;28;20035;-74
2021/04/09 10:00:59;;;;;;;8.90;5.03;;;;;;;8.89;41.92;101273.75;5094068;28;20387;-72
2021/04/09 10:03:32;;;;;;;;;;;;;;;9.00;41.93;101290.19;5112998;28;20072;-72
2021/04/09 10:05:57;;;;;;;7.53;4.07;;;;;;;8.89;41.01;101245.34;5111846;28;19914;-71
2021/04/09 10:08:24;;;;;;;9.43;4.80;;;;;;;9.23;40.92;101277.78;5112591;28;20031;-75
2021/04/09 10:10:54;;;;;;;10.77;4.88;;;;;;;9.21;40.14;101277.00;5111963;28;20028;-76
2021/04/09 10:13:29;;;;;;;8.10;4.57;;;;;;;9.15;40.01;101246.13;5112424;28;20039;-70
2021/04/09 10:16:17;;;;;;;10.18;4.53;;;;;;;9.45;39.27;101273.34;5112024;28;20327;-71
2021/04/09 10:18:48;;;;;;;10.48;5.00;;;;;;;9.27;38.53;101235.03;5092898;28;20035;-74
2021/04/09 10:21:29;;;;;;;9.75;5.32;;;;;;;9.38;38.81;101230.16;5111876;28;20526;-74
2021/04/09 10:24:05;;;;;;;9.73;5.10;;;;;;;9.52;38.57;101258.00;5111712;28;20043;-75
2021/04/09 10:26:31;;;;;;;9.27;4.80;;;;;;;9.48;38.50;101243.97;5094194;28;20028;-72
2021/04/09 10:28:56;;;;;;;9.07;4.93;;;;;;;9.08;38.48;101181.66;5093765;28;20089;-73
2021/04/09 10:31:23;;;;;;;7.80;4.15;;;;;;;9.55;37.81;101249.88;5093926;28;20459;-75
2021/04/09 10:33:51;;;;;;;7.25;3.92;;;;;;;9.16;37.73;101178.66;5093692;28;20040;-70
2021/04/09 10:36:24;;;;;;;7.07;4.03;;;;;;;9.65;37.94;101230.84;5112254;28;20115;-71
2021/04/09 10:38:52;;;;;;;12.00;4.30;;;;;;;9.87;37.25;101237.94;5113401;28;20031;-82
2021/04/09 10:41:29;;;;;;;11.52;5.53;;;;;;;9.85;37.76;101199.84;5115846;28;20035;-77
2021/04/09 10:44:15;;;;;;;8.00;4.18;;;;;;;9.64;36.96;101154.50;5115462;28;20032;-70
2021/04/09 10:46:42;;;;;;;8.27;4.10;;;;;;;10.01;37.00;101212.44;5115761;28;20083;-69
2021/04/09 10:49:10;;;;;;;9.38;4.47;;;;;;;10.03;37.31;101201.69;5115993;28;20043;-72
2021/04/09 10:52:10;;;;;;;6.78;4.00;;;;;;;10.09;36.64;101209.44;5115937;28;20386;-72
2021/04/09 10:54:38;;;;;;;9.55;4.40;;;;;;;10.27;36.51;101200.69;5115569;28;20098;-71
2021/04/09 10:57:06;;;;;;;7.95;4.32;;;;;;;10.26;35.83;101206.94;5115428;28;20493;-70
2021/04/09 10:59:41;;;;;;;11.77;4.65;;;;;;;10.20;36.48;101188.50;5115373;28;20058;-71
2021/04/09 11:02:08;;;;;;;10.73;4.07;;;;;;;10.30;36.36;101187.19;5119149;28;20031;-70
2021/04/09 11:04:35;;;;;;;8.13;4.07;;;;;;;10.29;36.11;101173.94;5115175;28;20443;-71
2021/04/09 11:07:03;;;;;;;10.43;4.35;;;;;;;10.28;35.83;101173.06;5115121;28;20024;-76
2021/04/09 11:09:55;;;;;;;8.25;4.60;;;;;;;10.30;36.03;101165.88;5113539;28;20035;-77
2021/04/09 11:12:27;;;;;;;7.93;4.38;;;;;;;10.46;35.74;101163.38;5112367;28;20093;-78
2021/04/09 11:15:10;;;;;;;8.05;4.70;;;;;;;10.51;35.79;101164.03;5115320;28;20040;-76
2021/04/09 11:17:38;;;;;;;7.95;4.55;;;;;;;10.37;36.15;101128.28;5115078;28;20466;-74
2021/04/09 11:20:22;;;;;;;10.80;4.70;;;;;;;10.62;35.82;101157.38;5113718;28;20047;-81
2021/04/09 11:23:19;;;;;;;8.65;4.72;;;;;;;10.65;35.68;101147.41;5115249;28;20096;-72
2021/04/09 11:25:47;;;;;;;12.68;5.15;;;;;;;10.68;35.75;101144.59;5115099;28;20035;-75
2021/04/09 11:28:21;;;;;;;9.80;4.78;;;;;;;10.70;35.73;101136.50;5080310;28;20394;-75